sensor_id;sensor_type;location;lat;lon;timestamp;P1;durP1;ratioP1;P2;durP2;ratioP2
21505;SDS011;10914;48.886;9.394;2022-10-31T00:01:09;36.13;;;33.22;;
21505;SDS011;10914;48.886;9.394;2022-10-31T00:03:34;33.75;;;31.17;;
21505;SDS011;10914;48.886;9.394;2022-10-31T00:05:59;34.93;;;32.33;;
21505;SDS011;10914;48.886;9.394;2022-10-31T00:08:26;33.53;;;31.08;;
21505;SDS011;10914;48.886;9.394;2022-10-31T00:10:51;34.33;;;31.70;;
21505;SDS011;10914;48.886;9.394;2022-10-31T00:13:16;33.63;;;30.93;;
21505;SDS011;10914;48.886;9.394;2022-10-31T00:15:42;33.85;;;31.33;;
21505;SDS011;10914;48.886;9.394;2022-10-31T00:18:07;33.58;;;31.08;;
21505;SDS011;10914;48.886;9.394;2022-10-31T00:20:33;34.58;;;31.85;;
21505;SDS011;10914;48.886;9.394;2022-10-31T00:23:01;34.05;;;31.33;;
21505;SDS011;10914;48.886;9.394;2022-10-31T00:25:27;33.83;;;31.08;;
21505;SDS011;10914;48.886;9.394;2022-10-31T00:27:53;33.70;;;31.27;;
21505;SDS011;10914;48.886;9.394;2022-10-31T00:30:18;33.00;;;30.42;;
21505;SDS011;10914;48.886;9.394;2022-10-31T00:32:43;34.65;;;32.05;;
21505;SDS011;10914;48.886;9.394;2022-10-31T00:35:09;35.00;;;32.60;;
21505;SDS011;10914;48.886;9.394;2022-10-31T00:37:34;34.38;;;31.67;;
21505;SDS011;10914;48.886;9.394;2022-10-31T00:39:59;37.08;;;34.08;;
21505;SDS011;10914;48.886;9.394;2022-10-31T00:42:24;36.97;;;34.37;;
21505;SDS011;10914;48.886;9.394;2022-10-31T00:44:49;36.08;;;33.15;;
21505;SDS011;10914;48.886;9.394;2022-10-31T00:47:15;35.45;;;32.97;;
21505;SDS011;10914;48.886;9.394;2022-10-31T00:49:40;35.08;;;32.38;;
21505;SDS011;10914;48.886;9.394;2022-10-31T00:52:05;35.77;;;32.93;;
21505;SDS011;10914;48.886;9.394;2022-10-31T00:54:30;34.13;;;31.70;;
21505;SDS011;10914;48.886;9.394;2022-10-31T00:56:56;37.42;;;34.65;;
21505;SDS011;10914;48.886;9.394;2022-10-31T00:59:21;35.40;;;32.90;;
21505;SDS011;10914;48.886;9.394;2022-10-31T01:01:46;34.10;;;31.65;;
21505;SDS011;10914;48.886;9.394;2022-10-31T01:04:11;35.43;;;32.93;;
21505;SDS011;10914;48.886;9.394;2022-10-31T01:06:37;34.30;;;31.90;;
21505;SDS011;10914;48.886;9.394;2022-10-31T01:09:02;35.30;;;32.58;;
21505;SDS011;10914;48.886;9.394;2022-10-31T01:11:27;35.08;;;32.42;;
21505;SDS011;10914;48.886;9.394;2022-10-31T01:13:53;32.88;;;30.58;;
21505;SDS011;10914;48.886;9.394;2022-10-31T01:16:19;34.53;;;32.05;;
21505;SDS011;10914;48.886;9.394;2022-10-31T01:18:44;34.47;;;32.17;;
21505;SDS011;10914;48.886;9.394;2022-10-31T01:21:17;33.65;;;31.35;;
21505;SDS011;10914;48.886;9.394;2022-10-31T01:23:43;34.00;;;31.60;;
21505;SDS011;10914;48.886;9.394;2022-10-31T01:26:12;34.83;;;32.15;;
21505;SDS011;10914;48.886;9.394;2022-10-31T01:28:40;34.30;;;31.98;;
21505;SDS011;10914;48.886;9.394;2022-10-31T01:31:08;34.22;;;31.77;;
21505;SDS011;10914;48.886;9.394;2022-10-31T01:33:34;33.67;;;31.02;;
21505;SDS011;10914;48.886;9.394;2022-10-31T01:35:59;36.55;;;33.53;;
21505;SDS011;10914;48.886;9.394;2022-10-31T01:38:25;34.35;;;31.85;;
21505;SDS011;10914;48.886;9.394;2022-10-31T01:40:50;33.20;;;30.90;;
21505;SDS011;10914;48.886;9.394;2022-10-31T01:43:15;34.72;;;32.20;;
21505;SDS011;10914;48.886;9.394;2022-10-31T01:45:41;35.23;;;32.63;;
21505;SDS011;10914;48.886;9.394;2022-10-31T01:48:12;34.03;;;31.67;;
21505;SDS011;10914;48.886;9.394;2022-10-31T01:50:38;31.30;;;29.17;;
21505;SDS011;10914;48.886;9.394;2022-10-31T01:53:04;33.70;;;31.50;;
21505;SDS011;10914;48.886;9.394;2022-10-31T01:55:31;32.92;;;30.58;;
21505;SDS011;10914;48.886;9.394;2022-10-31T01:57:58;33.03;;;30.73;;
21505;SDS011;10914;48.886;9.394;2022-10-31T02:00:24;33.38;;;31.00;;
21505;SDS011;10914;48.886;9.394;2022-10-31T02:02:51;32.28;;;30.23;;
21505;SDS011;10914;48.886;9.394;2022-10-31T02:05:18;31.45;;;29.45;;
21505;SDS011;10914;48.886;9.394;2022-10-31T02:08:30;32.97;;;30.75;;
21505;SDS011;10914;48.886;9.394;2022-10-31T02:10:30;33.97;;;31.45;;
21505;SDS011;10914;48.886;9.394;2022-10-31T02:12:57;33.08;;;30.77;;
21505;SDS011;10914;48.886;9.394;2022-10-31T02:15:23;32.08;;;30.02;;
21505;SDS011;10914;48.886;9.394;2022-10-31T02:17:48;32.13;;;29.90;;
21505;SDS011;10914;48.886;9.394;2022-10-31T02:20:15;36.35;;;33.70;;
21505;SDS011;10914;48.886;9.394;2022-10-31T02:30:35;31.40;;;29.38;;
21505;SDS011;10914;48.886;9.394;2022-10-31T02:33:06;32.15;;;29.92;;
21505;SDS011;10914;48.886;9.394;2022-10-31T02:35:49;33.40;;;30.98;;
21505;SDS011;10914;48.886;9.394;2022-10-31T02:40:58;32.58;;;30.42;;
21505;SDS011;10914;48.886;9.394;2022-10-31T02:43:43;33.35;;;30.40;;
21505;SDS011;10914;48.886;9.394;2022-10-31T02:46:28;38.20;;;35.40;;
21505;SDS011;10914;48.886;9.394;2022-10-31T02:48:54;35.08;;;32.42;;
21505;SDS011;10914;48.886;9.394;2022-10-31T02:51:22;37.22;;;34.72;;
21505;SDS011;10914;48.886;9.394;2022-10-31T02:53:47;39.20;;;36.67;;
21505;SDS011;10914;48.886;9.394;2022-10-31T02:56:16;37.67;;;35.10;;
21505;SDS011;10914;48.886;9.394;2022-10-31T02:58:43;36.10;;;33.47;;
21505;SDS011;10914;48.886;9.394;2022-10-31T03:01:22;32.10;;;29.90;;
21505;SDS011;10914;48.886;9.394;2022-10-31T03:04:01;38.35;;;35.70;;
21505;SDS011;10914;48.886;9.394;2022-10-31T03:06:35;38.90;;;36.33;;
21505;SDS011;10914;48.886;9.394;2022-10-31T03:09:13;32.38;;;30.27;;
21505;SDS011;10914;48.886;9.394;2022-10-31T03:11:43;33.17;;;30.73;;
21505;SDS011;10914;48.886;9.394;2022-10-31T03:14:12;32.05;;;29.95;;
21505;SDS011;10914;48.886;9.394;2022-10-31T03:16:50;39.45;;;36.97;;
21505;SDS011;10914;48.886;9.394;2022-10-31T03:19:16;36.47;;;34.05;;
21505;SDS011;10914;48.886;9.394;2022-10-31T03:22:02;33.15;;;31.05;;
21505;SDS011;10914;48.886;9.394;2022-10-31T03:24:30;40.72;;;37.80;;
21505;SDS011;10914;48.886;9.394;2022-10-31T03:26:57;42.15;;;39.55;;
21505;SDS011;10914;48.886;9.394;2022-10-31T03:29:24;36.38;;;33.90;;
21505;SDS011;10914;48.886;9.394;2022-10-31T03:31:53;35.42;;;33.00;;
21505;SDS011;10914;48.886;9.394;2022-10-31T03:34:19;38.85;;;35.88;;
21505;SDS011;10914;48.886;9.394;2022-10-31T03:36:45;35.33;;;32.70;;
21505;SDS011;10914;48.886;9.394;2022-10-31T03:39:13;39.58;;;36.88;;
21505;SDS011;10914;48.886;9.394;2022-10-31T03:41:42;36.17;;;33.70;;
21505;SDS011;10914;48.886;9.394;2022-10-31T03:44:10;32.90;;;30.50;;
21505;SDS011;10914;48.886;9.394;2022-10-31T03:46:37;42.10;;;39.40;;
21505;SDS011;10914;48.886;9.394;2022-10-31T03:49:02;40.50;;;37.45;;
21505;SDS011;10914;48.886;9.394;2022-10-31T03:51:31;35.83;;;33.53;;
21505;SDS011;10914;48.886;9.394;2022-10-31T03:54:02;35.92;;;33.47;;
21505;SDS011;10914;48.886;9.394;2022-10-31T03:56:33;34.50;;;31.75;;
21505;SDS011;10914;48.886;9.394;2022-10-31T04:01:39;37.63;;;34.75;;
21505;SDS011;10914;48.886;9.394;2022-10-31T04:04:06;36.13;;;33.63;;
21505;SDS011;10914;48.886;9.394;2022-10-31T04:06:31;38.35;;;35.83;;
21505;SDS011;10914;48.886;9.394;2022-10-31T04:08:59;35.33;;;32.95;;
21505;SDS011;10914;48.886;9.394;2022-10-31T04:11:28;38.30;;;35.72;;
21505;SDS011;10914;48.886;9.394;2022-10-31T04:13:54;35.67;;;33.25;;
21505;SDS011;10914;48.886;9.394;2022-10-31T04:16:20;35.47;;;33.17;;
21505;SDS011;10914;48.886;9.394;2022-10-31T04:18:46;34.70;;;32.45;;
21505;SDS011;10914;48.886;9.394;2022-10-31T04:21:12;39.00;;;36.13;;
21505;SDS011;10914;48.886;9.394;2022-10-31T04:23:37;37.60;;;35.30;;
21505;SDS011;10914;48.886;9.394;2022-10-31T04:26:02;32.80;;;30.80;;
21505;SDS011;10914;48.886;9.394;2022-10-31T04:28:27;38.92;;;36.20;;
21505;SDS011;10914;48.886;9.394;2022-10-31T04:30:53;37.88;;;35.42;;
21505;SDS011;10914;48.886;9.394;2022-10-31T04:33:18;38.13;;;35.72;;
21505;SDS011;10914;48.886;9.394;2022-10-31T04:35:44;34.85;;;32.65;;
21505;SDS011;10914;48.886;9.394;2022-10-31T04:38:09;33.72;;;31.52;;
21505;SDS011;10914;48.886;9.394;2022-10-31T04:40:34;39.28;;;36.63;;
21505;SDS011;10914;48.886;9.394;2022-10-31T04:42:59;35.10;;;32.38;;
21505;SDS011;10914;48.886;9.394;2022-10-31T04:45:25;37.87;;;35.33;;
21505;SDS011;10914;48.886;9.394;2022-10-31T04:47:50;35.27;;;32.87;;
21505;SDS011;10914;48.886;9.394;2022-10-31T04:50:15;34.63;;;32.33;;
21505;SDS011;10914;48.886;9.394;2022-10-31T04:52:43;36.47;;;33.97;;
21505;SDS011;10914;48.886;9.394;2022-10-31T04:55:09;40.38;;;37.72;;
21505;SDS011;10914;48.886;9.394;2022-10-31T04:57:45;37.72;;;35.22;;
21505;SDS011;10914;48.886;9.394;2022-10-31T05:00:11;38.70;;;36.08;;
21505;SDS011;10914;48.886;9.394;2022-10-31T05:02:46;40.15;;;37.28;;
21505;SDS011;10914;48.886;9.394;2022-10-31T05:05:12;37.65;;;35.13;;
21505;SDS011;10914;48.886;9.394;2022-10-31T05:07:38;39.88;;;36.92;;
21505;SDS011;10914;48.886;9.394;2022-10-31T05:10:04;37.80;;;35.22;;
21505;SDS011;10914;48.886;9.394;2022-10-31T05:12:30;43.33;;;40.40;;
21505;SDS011;10914;48.886;9.394;2022-10-31T05:14:55;44.57;;;41.30;;
21505;SDS011;10914;48.886;9.394;2022-10-31T05:17:20;43.73;;;40.77;;
21505;SDS011;10914;48.886;9.394;2022-10-31T05:19:45;47.08;;;44.22;;
21505;SDS011;10914;48.886;9.394;2022-10-31T05:22:10;46.17;;;43.08;;
21505;SDS011;10914;48.886;9.394;2022-10-31T05:24:36;48.47;;;45.43;;
21505;SDS011;10914;48.886;9.394;2022-10-31T05:27:01;42.35;;;39.70;;
21505;SDS011;10914;48.886;9.394;2022-10-31T05:29:26;44.30;;;41.40;;
21505;SDS011;10914;48.886;9.394;2022-10-31T05:31:51;54.50;;;51.22;;
21505;SDS011;10914;48.886;9.394;2022-10-31T05:34:16;50.87;;;47.57;;
21505;SDS011;10914;48.886;9.394;2022-10-31T05:36:42;50.15;;;46.88;;
21505;SDS011;10914;48.886;9.394;2022-10-31T05:39:07;45.88;;;42.88;;
21505;SDS011;10914;48.886;9.394;2022-10-31T05:41:32;50.20;;;46.90;;
21505;SDS011;10914;48.886;9.394;2022-10-31T05:43:57;40.17;;;37.47;;
21505;SDS011;10914;48.886;9.394;2022-10-31T05:46:22;41.42;;;38.72;;
21505;SDS011;10914;48.886;9.394;2022-10-31T05:48:48;40.63;;;37.87;;
21505;SDS011;10914;48.886;9.394;2022-10-31T05:51:13;39.92;;;37.22;;
21505;SDS011;10914;48.886;9.394;2022-10-31T05:53:38;47.03;;;43.90;;
21505;SDS011;10914;48.886;9.394;2022-10-31T05:56:03;49.60;;;46.60;;
21505;SDS011;10914;48.886;9.394;2022-10-31T05:58:28;46.17;;;43.40;;
21505;SDS011;10914;48.886;9.394;2022-10-31T06:00:54;50.47;;;47.45;;
21505;SDS011;10914;48.886;9.394;2022-10-31T06:03:19;43.67;;;40.95;;
21505;SDS011;10914;48.886;9.394;2022-10-31T06:05:44;43.53;;;40.75;;
21505;SDS011;10914;48.886;9.394;2022-10-31T06:08:09;44.65;;;41.95;;
21505;SDS011;10914;48.886;9.394;2022-10-31T06:10:34;48.27;;;45.40;;
21505;SDS011;10914;48.886;9.394;2022-10-31T06:13:00;50.80;;;47.42;;
21505;SDS011;10914;48.886;9.394;2022-10-31T06:15:25;49.25;;;46.03;;
21505;SDS011;10914;48.886;9.394;2022-10-31T06:18:00;49.10;;;46.08;;
21505;SDS011;10914;48.886;9.394;2022-10-31T06:20:25;49.05;;;46.00;;
21505;SDS011;10914;48.886;9.394;2022-10-31T06:22:50;54.90;;;51.38;;
21505;SDS011;10914;48.886;9.394;2022-10-31T06:25:15;49.37;;;46.17;;
21505;SDS011;10914;48.886;9.394;2022-10-31T06:27:41;43.83;;;41.13;;
21505;SDS011;10914;48.886;9.394;2022-10-31T06:30:06;44.38;;;41.60;;
21505;SDS011;10914;48.886;9.394;2022-10-31T06:32:31;42.97;;;40.40;;
21505;SDS011;10914;48.886;9.394;2022-10-31T06:34:56;43.80;;;40.87;;
21505;SDS011;10914;48.886;9.394;2022-10-31T06:37:22;43.90;;;41.45;;
21505;SDS011;10914;48.886;9.394;2022-10-31T06:39:47;43.38;;;40.60;;
21505;SDS011;10914;48.886;9.394;2022-10-31T06:42:12;39.27;;;36.77;;
21505;SDS011;10914;48.886;9.394;2022-10-31T06:44:39;38.60;;;36.15;;
21505;SDS011;10914;48.886;9.394;2022-10-31T06:47:05;35.95;;;33.75;;
21505;SDS011;10914;48.886;9.394;2022-10-31T06:49:30;35.75;;;33.55;;
21505;SDS011;10914;48.886;9.394;2022-10-31T06:51:55;34.63;;;32.20;;
21505;SDS011;10914;48.886;9.394;2022-10-31T06:54:21;32.38;;;30.25;;
21505;SDS011;10914;48.886;9.394;2022-10-31T06:56:46;32.35;;;30.30;;
21505;SDS011;10914;48.886;9.394;2022-10-31T06:59:14;32.08;;;30.05;;
21505;SDS011;10914;48.886;9.394;2022-10-31T07:01:40;32.83;;;30.70;;
21505;SDS011;10914;48.886;9.394;2022-10-31T07:04:05;37.28;;;34.90;;
21505;SDS011;10914;48.886;9.394;2022-10-31T07:06:30;33.88;;;31.88;;
21505;SDS011;10914;48.886;9.394;2022-10-31T07:08:55;37.08;;;34.90;;
21505;SDS011;10914;48.886;9.394;2022-10-31T07:11:20;36.80;;;34.55;;
21505;SDS011;10914;48.886;9.394;2022-10-31T07:13:46;33.83;;;31.70;;
21505;SDS011;10914;48.886;9.394;2022-10-31T07:16:11;31.77;;;29.65;;
21505;SDS011;10914;48.886;9.394;2022-10-31T07:18:37;35.00;;;32.78;;
21505;SDS011;10914;48.886;9.394;2022-10-31T07:21:03;36.83;;;34.72;;
21505;SDS011;10914;48.886;9.394;2022-10-31T07:23:28;30.90;;;28.77;;
21505;SDS011;10914;48.886;9.394;2022-10-31T07:25:54;35.75;;;33.33;;
21505;SDS011;10914;48.886;9.394;2022-10-31T07:28:20;38.60;;;35.95;;
21505;SDS011;10914;48.886;9.394;2022-10-31T07:30:48;43.83;;;40.83;;
21505;SDS011;10914;48.886;9.394;2022-10-31T07:33:14;34.88;;;32.38;;
21505;SDS011;10914;48.886;9.394;2022-10-31T07:35:39;34.67;;;32.33;;
21505;SDS011;10914;48.886;9.394;2022-10-31T07:38:08;34.43;;;32.13;;
21505;SDS011;10914;48.886;9.394;2022-10-31T07:40:33;34.97;;;32.40;;
21505;SDS011;10914;48.886;9.394;2022-10-31T07:42:58;34.33;;;31.87;;
21505;SDS011;10914;48.886;9.394;2022-10-31T07:45:24;33.85;;;31.52;;
21505;SDS011;10914;48.886;9.394;2022-10-31T07:47:50;32.65;;;30.45;;
21505;SDS011;10914;48.886;9.394;2022-10-31T07:50:17;32.40;;;30.17;;
21505;SDS011;10914;48.886;9.394;2022-10-31T07:52:42;31.33;;;29.25;;
21505;SDS011;10914;48.886;9.394;2022-10-31T07:55:08;30.10;;;28.10;;
21505;SDS011;10914;48.886;9.394;2022-10-31T07:57:33;36.53;;;34.10;;
21505;SDS011;10914;48.886;9.394;2022-10-31T07:59:58;37.45;;;35.08;;
21505;SDS011;10914;48.886;9.394;2022-10-31T08:02:24;38.53;;;36.10;;
21505;SDS011;10914;48.886;9.394;2022-10-31T08:04:49;40.88;;;38.25;;
21505;SDS011;10914;48.886;9.394;2022-10-31T08:07:15;38.90;;;36.47;;
21505;SDS011;10914;48.886;9.394;2022-10-31T08:09:40;40.53;;;37.92;;
21505;SDS011;10914;48.886;9.394;2022-10-31T08:12:05;43.17;;;40.37;;
21505;SDS011;10914;48.886;9.394;2022-10-31T08:14:31;36.95;;;34.58;;
21505;SDS011;10914;48.886;9.394;2022-10-31T08:16:56;37.63;;;35.08;;
21505;SDS011;10914;48.886;9.394;2022-10-31T08:19:21;35.73;;;33.27;;
21505;SDS011;10914;48.886;9.394;2022-10-31T08:21:46;32.63;;;30.30;;
21505;SDS011;10914;48.886;9.394;2022-10-31T08:24:15;31.73;;;29.63;;
21505;SDS011;10914;48.886;9.394;2022-10-31T08:26:40;35.22;;;32.85;;
21505;SDS011;10914;48.886;9.394;2022-10-31T08:29:05;37.03;;;34.53;;
21505;SDS011;10914;48.886;9.394;2022-10-31T08:31:30;36.22;;;34.00;;
21505;SDS011;10914;48.886;9.394;2022-10-31T08:33:56;33.95;;;31.38;;
21505;SDS011;10914;48.886;9.394;2022-10-31T08:36:21;31.65;;;29.25;;
21505;SDS011;10914;48.886;9.394;2022-10-31T08:38:47;31.83;;;29.38;;
21505;SDS011;10914;48.886;9.394;2022-10-31T08:41:12;33.30;;;31.02;;
21505;SDS011;10914;48.886;9.394;2022-10-31T08:43:37;32.07;;;29.97;;
21505;SDS011;10914;48.886;9.394;2022-10-31T08:46:02;33.43;;;31.33;;
21505;SDS011;10914;48.886;9.394;2022-10-31T08:48:28;32.97;;;30.48;;
21505;SDS011;10914;48.886;9.394;2022-10-31T08:50:55;32.13;;;30.02;;
21505;SDS011;10914;48.886;9.394;2022-10-31T08:53:21;31.42;;;29.15;;
21505;SDS011;10914;48.886;9.394;2022-10-31T08:55:47;33.83;;;31.25;;
21505;SDS011;10914;48.886;9.394;2022-10-31T08:58:14;34.92;;;32.35;;
21505;SDS011;10914;48.886;9.394;2022-10-31T09:00:39;34.78;;;32.08;;
21505;SDS011;10914;48.886;9.394;2022-10-31T09:03:05;35.30;;;32.70;;
21505;SDS011;10914;48.886;9.394;2022-10-31T09:05:31;34.65;;;32.15;;
21505;SDS011;10914;48.886;9.394;2022-10-31T09:07:57;33.30;;;31.00;;
21505;SDS011;10914;48.886;9.394;2022-10-31T09:10:23;32.60;;;30.00;;
21505;SDS011;10914;48.886;9.394;2022-10-31T09:12:58;33.40;;;30.90;;
21505;SDS011;10914;48.886;9.394;2022-10-31T09:15:24;34.53;;;32.13;;
21505;SDS011;10914;48.886;9.394;2022-10-31T09:17:50;36.85;;;34.25;;
21505;SDS011;10914;48.886;9.394;2022-10-31T09:20:15;36.13;;;33.60;;
21505;SDS011;10914;48.886;9.394;2022-10-31T09:22:40;34.80;;;32.50;;
21505;SDS011;10914;48.886;9.394;2022-10-31T09:25:06;33.25;;;30.90;;
21505;SDS011;10914;48.886;9.394;2022-10-31T09:27:31;32.58;;;30.33;;
21505;SDS011;10914;48.886;9.394;2022-10-31T09:29:56;30.90;;;28.80;;
21505;SDS011;10914;48.886;9.394;2022-10-31T09:32:22;30.17;;;28.08;;
21505;SDS011;10914;48.886;9.394;2022-10-31T09:34:47;30.67;;;28.40;;
21505;SDS011;10914;48.886;9.394;2022-10-31T09:37:12;30.30;;;28.07;;
21505;SDS011;10914;48.886;9.394;2022-10-31T09:39:37;32.50;;;30.02;;
21505;SDS011;10914;48.886;9.394;2022-10-31T09:42:08;29.50;;;27.25;;
21505;SDS011;10914;48.886;9.394;2022-10-31T09:52:26;28.30;;;26.17;;
21505;SDS011;10914;48.886;9.394;2022-10-31T09:57:33;30.15;;;27.92;;
21505;SDS011;10914;48.886;9.394;2022-10-31T09:59:59;30.20;;;28.13;;
21505;SDS011;10914;48.886;9.394;2022-10-31T10:04:58;28.58;;;26.52;;
21505;SDS011;10914;48.886;9.394;2022-10-31T10:09:55;30.95;;;28.42;;
21505;SDS011;10914;48.886;9.394;2022-10-31T10:15:16;27.75;;;25.85;;
21505;SDS011;10914;48.886;9.394;2022-10-31T10:17:48;28.73;;;26.75;;
21505;SDS011;10914;48.886;9.394;2022-10-31T10:20:18;29.88;;;27.05;;
21505;SDS011;10914;48.886;9.394;2022-10-31T10:25:22;26.48;;;24.70;;
21505;SDS011;10914;48.886;9.394;2022-10-31T10:33:11;27.30;;;25.25;;
21505;SDS011;10914;48.886;9.394;2022-10-31T10:38:16;27.80;;;25.65;;
21505;SDS011;10914;48.886;9.394;2022-10-31T10:40:42;27.15;;;24.92;;
21505;SDS011;10914;48.886;9.394;2022-10-31T10:48:50;27.60;;;25.50;;
21505;SDS011;10914;48.886;9.394;2022-10-31T10:59:38;26.17;;;24.20;;
21505;SDS011;10914;48.886;9.394;2022-10-31T11:02:08;26.93;;;24.83;;
21505;SDS011;10914;48.886;9.394;2022-10-31T11:04:39;28.27;;;25.90;;
21505;SDS011;10914;48.886;9.394;2022-10-31T11:07:05;28.40;;;25.75;;
21505;SDS011;10914;48.886;9.394;2022-10-31T11:09:32;27.25;;;25.02;;
21505;SDS011;10914;48.886;9.394;2022-10-31T11:11:57;29.80;;;27.40;;
21505;SDS011;10914;48.886;9.394;2022-10-31T11:14:23;31.33;;;28.95;;
21505;SDS011;10914;48.886;9.394;2022-10-31T11:16:50;32.67;;;29.98;;
21505;SDS011;10914;48.886;9.394;2022-10-31T11:21:44;31.13;;;28.83;;
21505;SDS011;10914;48.886;9.394;2022-10-31T11:26:35;32.33;;;29.93;;
21505;SDS011;10914;48.886;9.394;2022-10-31T11:29:03;27.23;;;25.02;;
21505;SDS011;10914;48.886;9.394;2022-10-31T11:31:28;27.50;;;25.60;;
21505;SDS011;10914;48.886;9.394;2022-10-31T11:33:58;25.58;;;23.67;;
21505;SDS011;10914;48.886;9.394;2022-10-31T11:36:25;26.58;;;24.42;;
21505;SDS011;10914;48.886;9.394;2022-10-31T11:38:51;27.25;;;25.20;;
21505;SDS011;10914;48.886;9.394;2022-10-31T11:41:18;27.45;;;25.50;;
21505;SDS011;10914;48.886;9.394;2022-10-31T11:43:54;28.42;;;26.13;;
21505;SDS011;10914;48.886;9.394;2022-10-31T11:46:21;28.58;;;25.85;;
21505;SDS011;10914;48.886;9.394;2022-10-31T11:48:52;27.40;;;25.50;;
21505;SDS011;10914;48.886;9.394;2022-10-31T11:51:28;28.02;;;25.65;;
21505;SDS011;10914;48.886;9.394;2022-10-31T11:53:55;25.92;;;24.20;;
21505;SDS011;10914;48.886;9.394;2022-10-31T11:56:20;28.08;;;25.77;;
21505;SDS011;10914;48.886;9.394;2022-10-31T11:58:56;27.95;;;25.95;;
21505;SDS011;10914;48.886;9.394;2022-10-31T12:01:25;28.30;;;26.05;;
21505;SDS011;10914;48.886;9.394;2022-10-31T12:03:54;27.92;;;25.75;;
21505;SDS011;10914;48.886;9.394;2022-10-31T12:06:33;26.67;;;24.77;;
21505;SDS011;10914;48.886;9.394;2022-10-31T12:08:59;28.00;;;26.00;;
21505;SDS011;10914;48.886;9.394;2022-10-31T12:14:02;28.33;;;25.67;;
21505;SDS011;10914;48.886;9.394;2022-10-31T12:22:13;27.98;;;25.92;;
21505;SDS011;10914;48.886;9.394;2022-10-31T12:27:19;27.80;;;25.80;;
21505;SDS011;10914;48.886;9.394;2022-10-31T12:32:26;28.10;;;25.63;;
21505;SDS011;10914;48.886;9.394;2022-10-31T12:40:11;28.42;;;26.05;;
21505;SDS011;10914;48.886;9.394;2022-10-31T12:55:18;27.27;;;25.38;;
21505;SDS011;10914;48.886;9.394;2022-10-31T12:57:46;28.85;;;26.48;;
21505;SDS011;10914;48.886;9.394;2022-10-31T13:00:16;25.60;;;23.75;;
21505;SDS011;10914;48.886;9.394;2022-10-31T13:02:48;28.02;;;25.83;;
21505;SDS011;10914;48.886;9.394;2022-10-31T13:05:24;29.50;;;27.02;;
21505;SDS011;10914;48.886;9.394;2022-10-31T13:07:54;27.80;;;25.80;;
21505;SDS011;10914;48.886;9.394;2022-10-31T13:12:46;28.53;;;26.03;;
21505;SDS011;10914;48.886;9.394;2022-10-31T13:15:20;29.10;;;26.55;;
21505;SDS011;10914;48.886;9.394;2022-10-31T13:17:48;29.02;;;26.70;;
21505;SDS011;10914;48.886;9.394;2022-10-31T13:22:46;28.77;;;26.42;;
21505;SDS011;10914;48.886;9.394;2022-10-31T13:25:17;28.67;;;26.52;;
21505;SDS011;10914;48.886;9.394;2022-10-31T13:30:29;29.27;;;26.58;;
21505;SDS011;10914;48.886;9.394;2022-10-31T13:32:58;28.45;;;26.23;;
21505;SDS011;10914;48.886;9.394;2022-10-31T13:35:32;29.08;;;26.75;;
21505;SDS011;10914;48.886;9.394;2022-10-31T13:43:02;29.35;;;27.05;;
21505;SDS011;10914;48.886;9.394;2022-10-31T13:45:30;29.13;;;27.02;;
21505;SDS011;10914;48.886;9.394;2022-10-31T13:47:56;29.92;;;27.25;;
21505;SDS011;10914;48.886;9.394;2022-10-31T13:50:23;29.85;;;27.65;;
21505;SDS011;10914;48.886;9.394;2022-10-31T13:52:48;29.25;;;27.10;;
21505;SDS011;10914;48.886;9.394;2022-10-31T13:57:57;29.45;;;27.42;;
21505;SDS011;10914;48.886;9.394;2022-10-31T14:00:23;26.93;;;24.83;;
21505;SDS011;10914;48.886;9.394;2022-10-31T14:02:50;26.90;;;24.85;;
21505;SDS011;10914;48.886;9.394;2022-10-31T14:05:34;28.73;;;26.40;;
21505;SDS011;10914;48.886;9.394;2022-10-31T14:08:01;27.20;;;25.20;;
21505;SDS011;10914;48.886;9.394;2022-10-31T14:10:31;29.23;;;26.98;;
21505;SDS011;10914;48.886;9.394;2022-10-31T14:13:04;27.15;;;25.15;;
21505;SDS011;10914;48.886;9.394;2022-10-31T14:15:30;28.48;;;25.73;;
21505;SDS011;10914;48.886;9.394;2022-10-31T14:17:57;27.73;;;25.67;;
21505;SDS011;10914;48.886;9.394;2022-10-31T14:20:37;27.35;;;25.33;;
21505;SDS011;10914;48.886;9.394;2022-10-31T14:25:37;30.02;;;27.65;;
21505;SDS011;10914;48.886;9.394;2022-10-31T14:28:17;28.58;;;26.30;;
21505;SDS011;10914;48.886;9.394;2022-10-31T14:30:50;29.17;;;27.00;;
21505;SDS011;10914;48.886;9.394;2022-10-31T14:33:17;27.67;;;25.60;;
21505;SDS011;10914;48.886;9.394;2022-10-31T14:35:47;29.65;;;27.38;;
21505;SDS011;10914;48.886;9.394;2022-10-31T14:38:22;29.67;;;27.17;;
21505;SDS011;10914;48.886;9.394;2022-10-31T14:41:37;29.65;;;27.23;;
21505;SDS011;10914;48.886;9.394;2022-10-31T14:51:17;28.98;;;26.67;;
21505;SDS011;10914;48.886;9.394;2022-10-31T14:53:53;29.23;;;26.80;;
21505;SDS011;10914;48.886;9.394;2022-10-31T14:56:26;30.95;;;28.33;;
21505;SDS011;10914;48.886;9.394;2022-10-31T14:58:52;31.02;;;28.70;;
21505;SDS011;10914;48.886;9.394;2022-10-31T15:01:19;31.15;;;28.58;;
21505;SDS011;10914;48.886;9.394;2022-10-31T15:03:46;32.85;;;30.25;;
21505;SDS011;10914;48.886;9.394;2022-10-31T15:06:13;29.02;;;26.73;;
21505;SDS011;10914;48.886;9.394;2022-10-31T15:11:14;34.60;;;31.70;;
21505;SDS011;10914;48.886;9.394;2022-10-31T15:13:46;31.58;;;29.30;;
21505;SDS011;10914;48.886;9.394;2022-10-31T15:16:13;31.80;;;29.50;;
21505;SDS011;10914;48.886;9.394;2022-10-31T15:18:44;32.67;;;30.20;;
21505;SDS011;10914;48.886;9.394;2022-10-31T15:21:10;35.58;;;32.65;;
21505;SDS011;10914;48.886;9.394;2022-10-31T15:23:35;33.17;;;30.92;;
21505;SDS011;10914;48.886;9.394;2022-10-31T15:26:01;33.47;;;30.52;;
21505;SDS011;10914;48.886;9.394;2022-10-31T15:28:27;32.60;;;30.13;;
21505;SDS011;10914;48.886;9.394;2022-10-31T15:30:54;31.45;;;28.88;;
21505;SDS011;10914;48.886;9.394;2022-10-31T15:33:24;32.97;;;30.35;;
21505;SDS011;10914;48.886;9.394;2022-10-31T15:36:02;31.58;;;29.05;;
21505;SDS011;10914;48.886;9.394;2022-10-31T15:38:28;33.22;;;30.60;;
21505;SDS011;10914;48.886;9.394;2022-10-31T15:40:58;31.25;;;28.95;;
21505;SDS011;10914;48.886;9.394;2022-10-31T15:43:24;33.35;;;30.40;;
21505;SDS011;10914;48.886;9.394;2022-10-31T15:45:49;33.38;;;30.50;;
21505;SDS011;10914;48.886;9.394;2022-10-31T15:48:15;35.55;;;32.60;;
21505;SDS011;10914;48.886;9.394;2022-10-31T15:53:16;33.88;;;31.25;;
21505;SDS011;10914;48.886;9.394;2022-10-31T15:55:53;34.80;;;32.00;;
21505;SDS011;10914;48.886;9.394;2022-10-31T15:58:19;35.00;;;31.95;;
21505;SDS011;10914;48.886;9.394;2022-10-31T16:00:44;36.08;;;33.03;;
21505;SDS011;10914;48.886;9.394;2022-10-31T16:05:39;35.97;;;32.97;;
21505;SDS011;10914;48.886;9.394;2022-10-31T16:08:04;40.20;;;36.80;;
21505;SDS011;10914;48.886;9.394;2022-10-31T16:10:45;46.35;;;42.45;;
21505;SDS011;10914;48.886;9.394;2022-10-31T16:13:10;44.50;;;41.10;;
21505;SDS011;10914;48.886;9.394;2022-10-31T16:15:36;51.95;;;47.55;;
21505;SDS011;10914;48.886;9.394;2022-10-31T16:18:01;48.65;;;44.67;;
21505;SDS011;10914;48.886;9.394;2022-10-31T16:20:27;59.65;;;54.55;;
21505;SDS011;10914;48.886;9.394;2022-10-31T16:22:54;64.88;;;58.92;;
21505;SDS011;10914;48.886;9.394;2022-10-31T16:25:27;64.63;;;57.83;;
21505;SDS011;10914;48.886;9.394;2022-10-31T16:27:53;52.80;;;47.78;;